Time;durP1;ratioP1;P1;durP2;ratioP2;P2;SDS_P1;SDS_P2;PMS_P1;PMS_P2;Temp;Humidity;BMP_temperature;BMP_pressure;BME280_temperature;BME280_humidity;BME280_pressure;Samples;Min_cycle;Max_cycle;Signal;HPM_P1;HPM_P2
2022/05/10 05:44:58;;;;;;;;;21.75;17.50;;;;;29.17;33.03;101448.63;5106280;23;45862;-80
2022/05/10 05:47:43;;;;;;;;;;;;;;;;;;;;;
2022/05/10 05:50:16;;;;;;;;;25.75;22.50;;;;;29.20;33.44;101459.09;4830714;29;73954;-79
2022/05/10 05:52:58;;;;;;;;;17.00;16.50;;;;;29.20;32.80;101440.03;4819165;29;46053;-79
2022/05/10 05:55:31;;;;;;;;;25.50;18.50;;;;;29.67;32.70;101449.06;4812142;29;45487;-78
2022/05/10 05:58:45;;;;;;;;;;;;;;;;;;;;;
2022/05/10 06:01:26;;;;;;;;;;;;;;;;;;;;;
2022/05/10 06:08:04;;;;;;;;;;;;;;;;;;;;;
2022/05/10 06:10:54;;;;;;;;;;;;;;;;;;;;;
2022/05/10 06:17:48;;;;;;;;;;;;;;;;;;;;;
2022/05/10 06:27:12;;;;;;;;;21.75;18.25;;;;;29.82;32.70;101449.66;4829127;29;46043;-79
2022/05/10 06:29:49;;;;;;;;;17.75;17.25;;;;;29.65;32.30;101443.81;4811678;29;45811;-79
2022/05/10 06:32:37;;;;;;;;;;;;;;;;;;;;;
2022/05/10 06:38:29;;;;;;;;;;;;;;;;;;;;;
2022/05/10 06:40:59;;;;;;;;;19.25;16.50;;;;;30.11;31.55;101435.56;4849096;29;72909;-78
2022/05/10 06:43:38;;;;;;;;;21.50;21.25;;;;;30.21;31.57;101439.72;4850134;29;45360;-80
2022/05/10 06:47:03;;;;;;;;;;;;;;;;;;;;;
2022/05/10 06:49:55;;;;;;;;;;;;;;;;;;;;;
2022/05/10 06:52:41;;;;;;;;;19.25;15.75;;;;;30.23;31.49;101443.06;4845521;29;72051;-79
2022/05/10 06:55:38;;;;;;;;;;;;;;;;;;;;;
2022/05/10 06:58:50;;;;;;;;;17.25;15.50;;;;;30.54;30.96;101431.41;4842326;29;72663;-79
2022/05/10 07:01:53;;;;;;;;;21.75;17.50;;;;;30.48;30.90;101435.81;4845026;29;45551;-79
2022/05/10 07:04:41;;;;;;;;;;;;;;;;;;;;;
2022/05/10 07:07:25;;;;;;;;;19.50;17.50;;;;;30.42;31.19;101437.50;4846609;29;68825;-79
2022/05/10 07:10:32;;;;;;;;;;;;;;;;;;;;;
2022/05/10 07:13:40;;;;;;;;;;;;;;;;;;;;;
2022/05/10 07:16:30;;;;;;;;;;;;;;;;;;;;;
2022/05/10 07:19:13;;;;;;;;;18.75;16.50;;;;;31.77;29.80;101433.41;4843882;29;70232;-79
2022/05/10 07:22:31;;;;;;;;;;;;;;;;;;;;;
2022/05/10 07:32:15;;;;;;;;;;;;;;;;;;;;;
2022/05/10 07:35:26;;;;;;;;;;;;;;;;;;;;;
2022/05/10 07:42:11;;;;;;;;;19.75;16.50;;;;;34.96;26.78;101420.41;4845612;29;45229;-79
2022/05/10 07:45:25;;;;;;;;;;;;;;;;;;;;;
2022/05/10 07:52:07;;;;;;;;;;;;;;;;;;;;;
2022/05/10 17:17:35;;;;;;;;;;;;;;;;;;;;;
2022/05/10 17:20:54;;;;;;;;;;;;;;;;;;;;;
2022/05/10 17:24:02;;;;;;;;;11.25;9.75;;;;;36.02;22.95;101022.53;4839472;29;71558;-79
2022/05/10 17:26:59;;;;;;;;;12.75;12.00;;;;;35.74;23.21;101021.81;4831710;29;45467;-80
2022/05/10 17:29:50;;;;;;;;;;;;;;;;;;;;;
2022/05/10 17:32:16;;;;;;;;;11.50;11.25;;;;;35.18;23.57;101018.50;4847642;29;74322;-78
2022/05/10 17:35:06;;;;;;;;;10.25;10.25;;;;;35.57;23.24;101016.41;4831698;29;45291;-79
2022/05/10 17:41:08;;;;;;;;;10.50;10.00;;;;;35.91;22.84;101022.47;4806160;29;45739;-79
2022/05/10 17:43:37;;;;;;;;;11.75;10.00;;;;;35.40;23.02;101012.16;4853327;29;46448;-78
2022/05/10 17:46:03;;;;;;;;;10.75;9.25;;;;;35.68;22.58;101002.78;4857822;29;45555;-79
2022/05/10 17:48:29;;;;;;;;;10.00;10.00;;;;;35.12;23.48;101005.81;4848297;29;45484;-79
2022/05/10 17:51:05;;;;;;;;;9.25;9.25;;;;;35.58;22.99;101007.09;4848382;29;45474;-79
2022/05/10 17:53:34;;;;;;;;;12.50;10.00;;;;;36.17;22.08;101001.44;4848733;29;45476;-81
2022/05/10 17:56:13;;;;;;;;;;;;;;;;;;;;;
2022/05/10 17:59:28;;;;;;;;;;;;;;;;;;;;;
2022/05/10 18:01:57;;;;;;;;;10.25;9.50;;;;;36.51;22.00;101012.91;4850133;29;73358;-81
2022/05/10 18:04:32;;;;;;;;;11.00;10.25;;;;;36.23;22.37;101005.94;4841071;29;48063;-81
2022/05/10 18:07:03;;;;;;;;;14.50;11.25;;;;;35.68;22.82;101011.00;4838346;29;45825;-81
2022/05/10 18:09:31;;;;;;;;;13.25;10.75;;;;;35.77;23.39;101006.72;4839187;29;45482;-81
2022/05/10 18:11:56;;;;;;;;;12.25;12.00;;;;;35.91;22.73;101008.72;4859355;29;45522;-80
2022/05/10 18:14:33;;;;;;;;;12.50;10.75;;;;;35.55;23.20;101001.28;4852960;29;45530;-81
2022/05/10 18:16:59;;;;;;;;;10.75;10.00;;;;;36.13;22.83;101005.00;4853853;29;45488;-81
2022/05/10 18:19:24;;;;;;;;;10.75;10.75;;;;;36.06;22.66;101004.44;4857331;29;45333;-80
2022/05/10 18:21:49;;;;;;;;;9.75;9.00;;;;;35.44;23.25;101005.84;4857803;29;45628;-81
2022/05/10 18:24:15;;;;;;;;;11.00;9.50;;;;;35.23;23.54;101001.25;4855877;29;45501;-80
2022/05/10 18:26:40;;;;;;;;;12.75;12.75;;;;;35.54;23.21;101003.19;4859439;29;45253;-80
2022/05/10 18:29:07;;;;;;;;;11.25;11.00;;;;;35.87;23.01;101006.78;4849150;29;45731;-80
2022/05/10 18:31:33;;;;;;;;;13.50;12.75;;;;;35.87;23.34;100998.53;4847075;29;45451;-79
2022/05/10 18:33:59;;;;;;;;;14.75;11.00;;;;;36.04;22.86;101006.63;4832138;29;47137;-79
2022/05/10 18:36:26;;;;;;;;;9.25;9.25;;;;;35.16;23.63;101003.38;4842424;29;45821;-79
2022/05/10 18:38:54;;;;;;;;;10.75;10.00;;;;;35.19;23.93;101011.09;4853946;29;45427;-79
2022/05/10 18:41:20;;;;;;;;;16.25;12.50;;;;;34.98;23.73;101012.78;4846355;29;45404;-79
2022/05/10 18:43:46;;;;;;;;;12.00;12.00;;;;;35.07;23.83;101011.25;4850187;29;46498;-79
2022/05/10 18:46:13;;;;;;;;;14.50;12.00;;;;;35.06;23.87;101004.09;4845041;29;45470;-79
2022/05/10 18:48:38;;;;;;;;;13.25;12.00;;;;;35.05;23.91;101007.97;4832903;29;45480;-79
2022/05/10 18:51:20;;;;;;;;;;;;;;;;;;;;;
2022/05/10 18:53:46;;;;;;;;;10.00;7.00;;;;;34.92;23.47;101018.50;4858245;29;74166;-79
2022/05/10 18:56:13;;;;;;;;;12.00;10.00;;;;;34.44;23.35;101012.69;4856160;29;45438;-79
2022/05/10 18:58:50;;;;;;;;;;;;;;;;;;;;;
2022/05/10 19:01:19;;;;;;;;;13.00;11.00;;;;;35.59;22.00;101008.75;4849578;29;73359;-79
2022/05/10 19:04:04;;;;;;;;;10.25;9.25;;;;;34.50;22.55;101016.34;4856854;29;45311;-79
2022/05/10 19:06:30;;;;;;;;;9.50;8.00;;;;;34.50;23.11;101021.81;4858232;29;45183;-80
2022/05/10 19:09:03;;;;;;;;;10.00;8.00;;;;;34.52;23.01;101020.47;4838926;29;45211;-79
2022/05/10 19:11:31;;;;;;;;;10.75;10.50;;;;;34.65;22.42;101022.00;4855350;29;45334;-79
2022/05/10 19:14:01;;;;;;;;;10.50;9.75;;;;;34.56;22.77;101025.44;4838262;29;47264;-79
2022/05/10 19:16:29;;;;;;;;;14.25;12.50;;;;;34.71;22.60;101014.66;4855697;29;45304;-79
2022/05/10 19:18:54;;;;;;;;;9.50;7.50;;;;;34.95;22.51;101018.81;4838637;29;45352;-79
2022/05/10 19:21:39;;;;;;;;;11.00;8.25;;;;;35.09;22.26;101005.50;4854488;29;45261;-79
2022/05/10 19:24:05;;;;;;;;;16.75;9.25;;;;;34.80;22.37;101000.25;4832670;29;47182;-80
2022/05/10 19:26:36;;;;;;;;;12.50;10.00;;;;;34.45;22.74;101016.25;4833555;29;46088;-80
2022/05/10 19:29:03;;;;;;;;;12.50;10.00;;;;;34.15;23.02;101009.25;4840502;29;45206;-79
2022/05/10 19:31:29;;;;;;;;;13.25;9.00;;;;;34.62;22.82;101005.22;4851341;29;45273;-79
2022/05/10 19:33:54;;;;;;;;;9.75;9.25;;;;;34.84;22.58;101012.38;4846455;29;45464;-79
2022/05/10 19:36:20;;;;;;;;;12.00;9.50;;;;;34.02;23.00;101017.84;4849977;29;45219;-79
2022/05/10 19:38:45;;;;;;;;;12.25;10.25;;;;;34.22;23.48;101016.47;4838968;29;45588;-79
2022/05/10 19:41:11;;;;;;;;;13.75;12.00;;;;;34.12;23.13;101007.03;4845009;29;45560;-78
2022/05/10 19:43:41;;;;;;;;;12.75;10.00;;;;;34.38;23.13;101018.38;4850936;29;46356;-80
2022/05/10 19:46:19;;;;;;;;;11.50;11.25;;;;;33.94;23.09;101015.53;4846139;29;45364;-80
2022/05/10 19:48:46;;;;;;;;;15.50;11.00;;;;;33.71;23.63;101021.97;4848769;29;45167;-80
2022/05/10 19:51:12;;;;;;;;;12.50;11.00;;;;;33.77;23.81;101022.94;4847286;29;45784;-81
2022/05/10 19:53:38;;;;;;;;;15.50;11.50;;;;;34.26;22.93;101018.47;4823186;29;47063;-80
2022/05/10 19:56:05;;;;;;;;;14.50;11.25;;;;;33.91;23.04;101029.72;4835290;29;45603;-80
2022/05/10 19:58:30;;;;;;;;;13.75;11.50;;;;;34.38;22.87;101019.19;4828442;29;45359;-80
2022/05/10 20:00:56;;;;;;;;;11.25;10.00;;;;;34.08;22.96;101025.06;4843209;29;45557;-80
2022/05/10 20:06:11;;;;;;;;;9.00;7.75;;;;;34.80;22.23;101022.22;4848628;29;45426;-80
2022/05/10 20:08:39;;;;;;;;;12.00;9.75;;;;;34.03;23.01;101008.53;4832140;29;45425;-80
2022/05/10 20:11:30;;;;;;;;;11.75;9.00;;;;;34.23;23.13;101026.38;4849202;29;45386;-80
2022/05/10 20:13:55;;;;;;;;;9.50;8.00;;;;;33.50;23.76;101024.66;4828102;29;47850;-80
2022/05/10 20:16:22;;;;;;;;;12.75;10.00;;;;;33.21;23.95;101019.19;4851119;29;45253;-80
2022/05/10 20:18:51;;;;;;;;;12.75;9.75;;;;;33.36;24.14;101016.75;4844739;29;45512;-80
2022/05/10 20:21:18;;;;;;;;;10.50;9.50;;;;;33.04;24.20;101030.09;4849359;29;45596;-81
2022/05/10 20:23:44;;;;;;;;;10.50;8.75;;;;;32.91;24.23;101021.34;4851816;29;45372;-81
2022/05/10 20:26:09;;;;;;;;;9.00;9.00;;;;;32.90;23.97;101012.31;4859155;29;45413;-81
2022/05/10 20:28:35;;;;;;;;;10.25;10.00;;;;;33.22;24.42;101026.34;4859988;29;45413;-81
2022/05/10 20:31:01;;;;;;;;;11.25;10.00;;;;;33.24;23.98;101010.50;4857922;29;45458;-80
2022/05/10 20:33:30;;;;;;;;;10.75;8.75;;;;;33.37;23.84;101029.34;4835244;29;46805;-80
2022/05/10 20:36:06;;;;;;;;;12.75;10.00;;;;;33.10;23.84;101020.06;4833093;29;45497;-81
2022/05/10 20:38:44;;;;;;;;;;;;;;;;;;;;;
2022/05/10 20:41:15;;;;;;;;;11.50;9.00;;;;;34.47;23.05;101016.84;4845868;29;72968;-80
2022/05/10 20:43:40;;;;;;;;;13.75;13.00;;;;;33.95;23.25;101025.41;4854888;29;45570;-80
2022/05/10 20:46:06;;;;;;;;;10.00;8.75;;;;;33.89;23.31;101023.66;4848707;29;45375;-80
2022/05/10 20:48:31;;;;;;;;;10.50;9.00;;;;;34.50;23.40;101025.41;4836259;29;45571;-80
2022/05/10 20:50:58;;;;;;;;;11.00;10.00;;;;;34.70;22.63;101030.28;4830843;29;45440;-80
2022/05/10 20:53:24;;;;;;;;;14.25;10.00;;;;;34.83;22.51;101029.94;4848732;29;45451;-80
2022/05/10 20:55:49;;;;;;;;;13.75;11.00;;;;;35.07;22.45;101016.75;4848536;29;45452;-80
2022/05/10 20:58:15;;;;;;;;;12.75;10.50;;;;;34.97;22.56;101019.38;4851744;29;45363;-79
2022/05/10 21:00:42;;;;;;;;;11.00;11.00;;;;;34.49;22.81;101021.00;4851493;29;45509;-81
2022/05/10 21:03:09;;;;;;;;;13.00;11.25;;;;;34.42;22.89;101016.75;4826227;29;46360;-80
2022/05/10 21:05:35;;;;;;;;;11.00;11.00;;;;;34.52;23.20;101016.91;4847861;29;45393;-80
2022/05/10 21:10:44;;;;;;;;;10.75;10.75;;;;;34.47;23.25;101023.16;4848270;29;45325;-80
2022/05/10 21:13:10;;;;;;;;;5.25;5.25;;;;;34.39;23.43;101015.38;4846857;29;45435;-80
2022/05/10 21:15:36;;;;;;;;;11.25;10.25;;;;;34.22;23.25;101011.00;4847915;29;45373;-80
2022/05/10 21:18:02;;;;;;;;;11.25;10.50;;;;;34.44;23.28;101009.13;4827484;29;45530;-80
2022/05/10 21:20:27;;;;;;;;;11.00;10.00;;;;;34.39;23.24;101014.53;4828742;29;46794;-80
2022/05/10 21:22:55;;;;;;;;;10.00;10.00;;;;;34.09;23.54;101009.44;4831520;29;46972;-80
2022/05/10 21:25:24;;;;;;;;;16.75;13.00;;;;;34.05;23.86;101011.84;4828625;29;45419;-80
2022/05/10 21:27:51;;;;;;;;;13.00;10.25;;;;;34.04;23.95;101007.47;4843574;29;45581;-80
2022/05/10 21:33:07;;;;;;;;;12.75;11.00;;;;;34.01;23.76;101010.69;4848376;29;45532;-80
2022/05/10 21:35:54;;;;;;;;;13.50;11.25;;;;;33.67;24.52;101009.88;4847869;29;45237;-80
2022/05/10 21:38:22;;;;;;;;;13.00;11.00;;;;;34.45;23.48;101014.34;4837120;29;45447;-80
2022/05/10 21:40:48;;;;;;;;;11.00;10.25;;;;;34.22;23.72;101011.00;4846626;29;45263;-80
2022/05/10 21:43:16;;;;;;;;;13.00;13.00;;;;;34.59;23.44;101014.81;4846959;29;46621;-80
2022/05/10 21:45:44;;;;;;;;;11.75;10.00;;;;;34.42;23.35;101014.03;4824779;29;45458;-80
2022/05/10 21:48:11;;;;;;;;;15.50;15.50;;;;;34.22;23.54;101020.06;4847935;29;45397;-80
2022/05/10 21:50:37;;;;;;;;;16.50;12.25;;;;;34.44;23.38;101012.69;4848018;29;45562;-80
2022/05/10 21:53:07;;;;;;;;;11.50;11.50;;;;;34.66;22.51;101018.19;4845989;29;46572;-80
2022/05/10 21:55:32;;;;;;;;;11.00;10.75;;;;;34.48;23.21;101024.00;4841596;29;45280;-80
2022/05/10 21:57:58;;;;;;;;;15.50;11.50;;;;;34.56;23.48;101014.47;4841757;29;45482;-80
2022/05/10 22:00:33;;;;;;;;;13.00;12.00;;;;;34.11;23.89;101034.69;4827888;29;45418;-80
2022/05/10 22:03:01;;;;;;;;;12.00;12.00;;;;;34.51;23.44;101020.72;4846690;29;45468;-80
2022/05/10 22:05:27;;;;;;;;;13.75;12.00;;;;;34.00;24.17;101028.22;4830272;29;45513;-80
2022/05/10 22:07:53;;;;;;;;;13.00;11.25;;;;;33.08;24.88;101025.78;4820778;29;45544;-80
2022/05/10 22:10:19;;;;;;;;;12.00;10.50;;;;;32.91;25.34;101037.75;4843529;29;45442;-80
2022/05/10 22:12:46;;;;;;;;;15.25;11.00;;;;;32.99;25.87;101034.63;4846299;29;45314;-80
2022/05/10 22:15:11;;;;;;;;;9.50;8.25;;;;;32.82;26.45;101036.47;4845332;29;45411;-79
2022/05/10 22:17:37;;;;;;;;;8.25;7.00;;;;;32.64;26.89;101029.25;4836389;29;45509;-79
2022/05/10 22:20:04;;;;;;;;;12.75;10.00;;;;;32.56;26.64;101029.63;4819235;29;45525;-79
2022/05/10 22:22:30;;;;;;;;;12.25;9.00;;;;;32.26;27.07;101025.16;4829110;29;48048;-79
2022/05/10 22:24:55;;;;;;;;;10.50;7.00;;;;;31.94;28.35;101026.59;4829556;29;45600;-79
2022/05/10 22:27:21;;;;;;;;;9.00;7.75;;;;;31.93;27.86;101042.16;4846410;29;45341;-79
2022/05/10 22:29:47;;;;;;;;;9.50;8.00;;;;;32.06;27.94;101040.22;4847441;29;45476;-79
2022/05/10 22:32:12;;;;;;;;;6.50;6.50;;;;;32.39;27.62;101037.75;4847344;29;46173;-79
2022/05/10 22:34:38;;;;;;;;;8.00;7.50;;;;;32.06;28.22;101024.66;4839733;29;45512;-78
2022/05/10 22:37:05;;;;;;;;;7.75;7.50;;;;;31.87;28.54;101034.03;4856016;29;45533;-79
2022/05/10 22:39:30;;;;;;;;;9.75;6.75;;;;;31.82;28.18;101033.94;4847717;29;45683;-79
2022/05/10 22:41:56;;;;;;;;;6.25;6.25;;;;;31.71;28.88;101040.22;4833091;29;46972;-78
2022/05/10 22:44:21;;;;;;;;;7.00;6.25;;;;;31.93;27.64;101027.66;4846905;29;45606;-79
2022/05/10 22:46:46;;;;;;;;;6.75;6.00;;;;;31.30;29.21;101033.69;4847138;29;45384;-79
2022/05/10 22:49:12;;;;;;;;;6.00;6.00;;;;;31.50;29.03;101033.41;4831128;29;45416;-79
2022/05/10 22:51:37;;;;;;;;;9.50;8.00;;;;;31.38;28.85;101030.63;4845348;29;45437;-79
2022/05/10 22:54:03;;;;;;;;;8.00;8.00;;;;;31.28;28.84;101026.78;4845472;29;45478;-79
2022/05/10 22:56:28;;;;;;;;;7.00;4.00;;;;;31.27;29.67;101036.88;4852491;29;45399;-79
2022/05/10 22:58:58;;;;;;;;;8.50;7.50;;;;;31.40;29.15;101030.41;4842609;29;45589;-79
2022/05/10 23:01:23;;;;;;;;;7.50;7.50;;;;;31.59;29.26;101021.88;4844957;29;45420;-79
